createdAt,value
2018-03-23T00:00:40.605Z,1003.67
2018-03-23T00:02:33.931Z,1003.65
2018-03-23T00:03:33.910Z,1003.64
2018-03-23T00:05:27.218Z,1003.61
2018-03-23T00:06:27.130Z,1003.61
2018-03-23T00:08:20.445Z,1003.58
2018-03-23T00:09:20.425Z,1003.56
2018-03-23T00:11:13.745Z,1003.57
2018-03-23T00:12:13.707Z,1003.59
2018-03-23T00:14:06.976Z,1003.54
2018-03-23T00:15:06.932Z,1003.58
2018-03-23T00:17:00.268Z,1003.50
2018-03-23T00:18:00.215Z,1003.48
2018-03-23T00:19:53.516Z,1003.43
2018-03-23T00:20:53.477Z,1003.43
2018-03-23T00:22:46.808Z,1003.43
2018-03-23T00:23:46.741Z,1003.42
2018-03-23T00:25:40.252Z,1003.38
2018-03-23T00:26:40.095Z,1003.41
2018-03-23T00:28:33.400Z,1003.39
2018-03-23T00:29:33.447Z,1003.39
2018-03-23T00:31:26.692Z,1003.36
2018-03-23T00:32:26.646Z,1003.34
2018-03-23T00:34:19.950Z,1003.36
2018-03-23T00:35:19.910Z,1003.34
2018-03-23T00:37:13.225Z,1003.36
2018-03-23T00:38:13.162Z,1003.31
2018-03-23T00:40:06.489Z,1003.32
2018-03-23T00:41:06.439Z,1003.31
2018-03-23T00:42:59.984Z,1003.30
2018-03-23T00:43:59.788Z,1003.28
2018-03-23T00:45:53.091Z,1003.29
2018-03-23T00:46:53.052Z,1003.27
2018-03-23T00:48:46.386Z,1003.29
2018-03-23T00:49:46.326Z,1003.27
2018-03-23T00:51:39.652Z,1003.29
2018-03-23T00:52:39.586Z,1003.30
2018-03-23T00:54:32.898Z,1003.25
2018-03-23T00:55:32.911Z,1003.22
2018-03-23T00:57:26.206Z,1003.22
2018-03-23T00:58:26.157Z,1003.24
2018-03-23T01:00:19.431Z,1003.19
2018-03-23T01:01:19.392Z,1003.17
2018-03-23T01:03:12.725Z,1003.16
2018-03-23T01:04:12.667Z,1003.15
2018-03-23T01:06:05.962Z,1003.13
2018-03-23T01:07:05.923Z,1003.13
2018-03-23T01:08:59.341Z,1003.09
2018-03-23T01:09:59.257Z,1003.12
2018-03-23T01:11:52.548Z,1003.10
2018-03-23T01:12:52.507Z,1003.07
2018-03-23T01:14:45.848Z,1003.06
2018-03-23T01:15:45.790Z,1003.04
2018-03-23T01:17:39.096Z,1003.07
2018-03-23T01:18:39.057Z,1003.05
2018-03-23T01:20:32.366Z,1002.99
2018-03-23T01:21:32.326Z,1002.99
2018-03-23T01:23:25.656Z,1003.01
2018-03-23T01:24:25.614Z,1002.96
2018-03-23T01:26:18.907Z,1002.95
2018-03-23T01:27:18.833Z,1002.93
2018-03-23T01:29:12.196Z,1002.93
2018-03-23T01:30:12.109Z,1002.91
2018-03-23T01:32:05.418Z,1002.93
2018-03-23T01:33:05.375Z,1002.88
2018-03-23T01:34:58.692Z,1002.87
2018-03-23T01:35:58.645Z,1002.85
2018-03-23T01:37:51.938Z,1002.85
2018-03-23T01:38:51.899Z,1002.84
2018-03-23T01:40:46.223Z,1002.80
2018-03-23T01:41:46.157Z,1002.79
2018-03-23T01:43:39.472Z,1002.79
2018-03-23T01:44:39.438Z,1002.79
2018-03-23T01:46:32.778Z,1002.76
2018-03-23T01:47:32.703Z,1002.75
2018-03-23T01:49:26.047Z,1002.72
2018-03-23T01:50:25.967Z,1002.73
2018-03-23T01:52:19.262Z,1002.71
2018-03-23T01:53:19.233Z,1002.67
2018-03-23T01:55:12.552Z,1002.65
2018-03-23T01:56:12.482Z,1002.63
2018-03-23T01:58:05.853Z,1002.62
2018-03-23T01:59:05.781Z,1002.58
2018-03-23T02:00:59.123Z,1002.57
2018-03-23T02:01:59.052Z,1002.56
2018-03-23T02:03:52.442Z,1002.59
2018-03-23T02:04:52.339Z,1002.56
2018-03-23T02:06:45.712Z,1002.52
2018-03-23T02:07:45.608Z,1002.52
2018-03-23T02:09:38.932Z,1002.52
2018-03-23T02:10:38.892Z,1002.55
2018-03-23T02:12:32.217Z,1002.51
2018-03-23T02:13:32.160Z,1002.50
2018-03-23T02:15:25.525Z,1002.51
2018-03-23T02:16:25.417Z,1002.45
2018-03-23T02:18:18.747Z,1002.49
2018-03-23T02:19:18.684Z,1002.43
2018-03-23T02:21:12.002Z,1002.47
2018-03-23T02:22:11.939Z,1002.50
2018-03-23T02:24:05.370Z,1002.46
2018-03-23T02:25:05.229Z,1002.40
2018-03-23T02:26:59.566Z,1002.39
2018-03-23T02:27:59.487Z,1002.37
2018-03-23T02:29:52.802Z,1002.33
2018-03-23T02:30:52.760Z,1002.30
2018-03-23T02:32:46.140Z,1002.27
2018-03-23T02:33:46.028Z,1002.28
2018-03-23T02:35:39.321Z,1002.22
2018-03-23T02:36:39.283Z,1002.23
2018-03-23T02:38:32.609Z,1002.22
2018-03-23T02:39:32.534Z,1002.25
2018-03-23T02:41:25.885Z,1002.24
2018-03-23T02:42:25.799Z,1002.24
2018-03-23T02:44:19.133Z,1002.24
2018-03-23T02:45:19.086Z,1002.25
2018-03-23T02:47:12.395Z,1002.23
2018-03-23T02:48:12.348Z,1002.27
2018-03-23T02:50:05.877Z,1002.26
2018-03-23T02:51:05.639Z,1002.21
2018-03-23T02:52:59.968Z,1002.24
2018-03-23T02:53:59.895Z,1002.27
2018-03-23T02:55:54.214Z,1002.19
2018-03-23T02:56:54.173Z,1002.21
2018-03-23T02:58:47.622Z,1002.16
2018-03-23T02:59:47.444Z,1002.19
2018-03-23T03:01:40.748Z,1002.20
2018-03-23T03:02:40.711Z,1002.20
2018-03-23T03:04:34.049Z,1002.19
2018-03-23T03:05:33.970Z,1002.17
2018-03-23T03:07:27.466Z,1002.19
2018-03-23T03:08:27.245Z,1002.16
2018-03-23T03:10:20.567Z,1002.16
2018-03-23T03:11:20.515Z,1002.12
2018-03-23T03:13:13.829Z,1002.12
2018-03-23T03:14:13.769Z,1002.08
2018-03-23T03:16:07.095Z,1002.12
2018-03-23T03:17:07.044Z,1002.07
2018-03-23T03:19:01.379Z,1002.03
2018-03-23T03:20:01.343Z,1002.06
2018-03-23T03:21:55.610Z,1001.96
2018-03-23T03:22:55.578Z,1001.94
2018-03-23T03:24:48.900Z,1001.94
2018-03-23T03:25:48.829Z,1001.91
2018-03-23T03:27:42.134Z,1001.91
2018-03-23T03:28:42.133Z,1001.90
2018-03-23T03:30:35.321Z,1001.93
2018-03-23T03:31:35.201Z,1001.89
2018-03-23T03:33:28.538Z,1001.89
2018-03-23T03:34:28.468Z,1001.83
2018-03-23T03:36:21.799Z,1001.85
2018-03-23T03:37:21.740Z,1001.84
2018-03-23T03:39:15.117Z,1001.83
2018-03-23T03:40:15.001Z,1001.85
2018-03-23T03:42:09.318Z,1001.82
2018-03-23T03:43:09.262Z,1001.78
2018-03-23T03:45:02.599Z,1001.76
2018-03-23T03:46:02.530Z,1001.79
2018-03-23T03:47:55.864Z,1001.70
2018-03-23T03:48:55.781Z,1001.74
2018-03-23T03:50:49.146Z,1001.69
2018-03-23T03:51:49.079Z,1001.66
2018-03-23T03:53:42.385Z,1001.69
2018-03-23T03:54:42.340Z,1001.69
2018-03-23T03:56:35.811Z,1001.69
2018-03-23T03:57:35.640Z,1001.65
2018-03-23T03:59:28.901Z,1001.67
2018-03-23T04:00:28.889Z,1001.65
2018-03-23T04:02:22.190Z,1001.69
2018-03-23T04:03:22.126Z,1001.69
2018-03-23T04:05:15.606Z,1001.68
2018-03-23T04:06:15.407Z,1001.67
2018-03-23T04:08:08.721Z,1001.68
2018-03-23T04:09:08.681Z,1001.68
2018-03-23T04:11:02.000Z,1001.68
2018-03-23T04:12:01.935Z,1001.68
2018-03-23T04:13:55.320Z,1001.68
2018-03-23T04:14:55.271Z,1001.66
2018-03-23T04:16:48.620Z,1001.65
2018-03-23T04:17:48.532Z,1001.63
2018-03-23T04:19:41.894Z,1001.62
2018-03-23T04:20:41.786Z,1001.68
2018-03-23T04:22:35.282Z,1001.65
2018-03-23T04:23:35.056Z,1001.63
2018-03-23T04:25:28.395Z,1001.65
2018-03-23T04:26:28.355Z,1001.61
2018-03-23T04:28:21.685Z,1001.60
2018-03-23T04:29:21.617Z,1001.58
2018-03-23T04:31:15.047Z,1001.58
2018-03-23T04:32:14.909Z,1001.55
2018-03-23T04:34:08.235Z,1001.58
2018-03-23T04:35:08.191Z,1001.57
2018-03-23T04:37:01.507Z,1001.53
2018-03-23T04:38:01.445Z,1001.49
2018-03-23T04:39:54.746Z,1001.50
2018-03-23T04:40:54.715Z,1001.47
2018-03-23T04:42:48.067Z,1001.43
2018-03-23T04:43:47.986Z,1001.41
2018-03-23T04:45:41.291Z,1001.39
2018-03-23T04:46:41.246Z,1001.41
2018-03-23T04:48:34.610Z,1001.32
2018-03-23T04:49:34.507Z,1001.37
2018-03-23T04:51:27.817Z,1001.30
2018-03-23T04:52:27.796Z,1001.28
2018-03-23T04:54:21.117Z,1001.24
2018-03-23T04:55:21.057Z,1001.26
2018-03-23T04:57:14.352Z,1001.25
2018-03-23T04:58:14.309Z,1001.27
2018-03-23T05:00:07.643Z,1001.25
2018-03-23T05:01:07.582Z,1001.23
2018-03-23T05:03:00.910Z,1001.20
2018-03-23T05:04:00.841Z,1001.19
2018-03-23T05:05:54.142Z,1001.17
2018-03-23T05:06:54.101Z,1001.20
2018-03-23T05:08:47.427Z,1001.19
2018-03-23T05:09:47.367Z,1001.22
2018-03-23T05:11:40.667Z,1001.22
2018-03-23T05:12:40.637Z,1001.23
2018-03-23T05:14:34.018Z,1001.21
2018-03-23T05:15:33.959Z,1001.18
2018-03-23T05:17:27.267Z,1001.17
2018-03-23T05:18:27.276Z,1001.13
2018-03-23T05:20:20.548Z,1001.12
2018-03-23T05:21:20.496Z,1001.13
2018-03-23T05:23:13.874Z,1001.05
2018-03-23T05:24:13.832Z,1001.07
2018-03-23T05:26:07.147Z,1001.07
2018-03-23T05:27:07.092Z,1001.03
2018-03-23T05:29:00.420Z,1001.06
2018-03-23T05:30:00.359Z,1001.03
2018-03-23T05:31:53.683Z,1001.05
2018-03-23T05:32:53.647Z,1001.02
2018-03-23T05:34:47.006Z,1001.06
2018-03-23T05:35:46.911Z,1001.02
2018-03-23T05:37:41.246Z,1001.06
2018-03-23T05:38:41.203Z,1001.06
2018-03-23T05:40:34.624Z,1001.03
2018-03-23T05:41:34.471Z,1001.07
2018-03-23T05:43:27.767Z,1001.06
2018-03-23T05:44:27.718Z,1001.05
2018-03-23T05:46:21.191Z,1001.07
2018-03-23T05:47:21.089Z,1001.08
2018-03-23T05:49:14.414Z,1001.07
2018-03-23T05:50:14.357Z,1001.07
2018-03-23T05:52:07.667Z,1001.08
2018-03-23T05:53:07.614Z,1001.05
2018-03-23T05:55:00.908Z,1001.07
2018-03-23T05:56:00.879Z,1001.04
2018-03-23T05:57:54.246Z,1001.02
2018-03-23T05:58:54.144Z,1001.03
2018-03-23T06:00:47.468Z,1001.06
2018-03-23T06:01:47.398Z,1001.02
2018-03-23T06:03:40.701Z,1001.03
2018-03-23T06:04:40.653Z,1000.99
2018-03-23T06:06:34.060Z,1001.01
2018-03-23T06:07:33.953Z,1001.00
2018-03-23T06:09:27.282Z,1001.01
2018-03-23T06:10:27.299Z,1001.00
2018-03-23T06:12:20.534Z,1001.01
2018-03-23T06:13:20.481Z,1001.01
2018-03-23T06:15:13.798Z,1001.04
2018-03-23T06:16:13.736Z,1001.05
2018-03-23T06:18:07.052Z,1001.03
2018-03-23T06:19:06.998Z,1000.99
2018-03-23T06:21:00.324Z,1001.03
2018-03-23T06:22:00.265Z,1000.97
2018-03-23T06:23:53.562Z,1001.01
2018-03-23T06:24:53.512Z,1001.02
2018-03-23T06:26:46.850Z,1001.00
2018-03-23T06:27:46.794Z,1000.99
2018-03-23T06:29:40.106Z,1001.00
2018-03-23T06:30:40.049Z,1001.04
2018-03-23T06:32:33.389Z,1001.02
2018-03-23T06:33:33.347Z,1001.02
2018-03-23T06:35:26.643Z,1001.00
2018-03-23T06:36:26.589Z,1001.01
2018-03-23T06:38:19.949Z,1001.04
2018-03-23T06:39:19.859Z,1001.01
2018-03-23T06:41:13.172Z,1000.97
2018-03-23T06:42:13.123Z,1000.99
2018-03-23T06:44:06.467Z,1000.94
2018-03-23T06:45:06.407Z,1000.95
2018-03-23T06:46:59.752Z,1000.94
2018-03-23T06:47:59.664Z,1000.92
2018-03-23T06:49:52.993Z,1000.97
2018-03-23T06:50:52.933Z,1000.92
2018-03-23T06:52:46.250Z,1000.91
2018-03-23T06:53:46.190Z,1000.96
2018-03-23T06:55:39.553Z,1000.91
2018-03-23T06:56:39.457Z,1000.91
2018-03-23T06:58:32.796Z,1000.88
2018-03-23T06:59:32.735Z,1000.90
2018-03-23T07:01:26.039Z,1000.88
2018-03-23T07:02:25.997Z,1000.91
2018-03-23T07:04:19.353Z,1000.91
2018-03-23T07:05:19.258Z,1000.91
2018-03-23T07:07:12.569Z,1000.94
2018-03-23T07:08:12.534Z,1000.95
2018-03-23T07:10:05.868Z,1000.90
2018-03-23T07:11:05.819Z,1000.89
2018-03-23T07:12:59.158Z,1000.85
2018-03-23T07:13:59.114Z,1000.85
2018-03-23T07:15:52.450Z,1000.83
2018-03-23T07:16:52.387Z,1000.88
2018-03-23T07:18:46.713Z,1000.87
2018-03-23T07:19:46.659Z,1000.90
2018-03-23T07:21:40.061Z,1000.86
2018-03-23T07:22:39.913Z,1000.86
2018-03-23T07:24:33.251Z,1000.90
2018-03-23T07:25:33.179Z,1000.85
2018-03-23T07:27:26.484Z,1000.83
2018-03-23T07:28:26.438Z,1000.89
2018-03-23T07:30:19.839Z,1000.87
2018-03-23T07:31:19.713Z,1000.84
2018-03-23T07:33:13.039Z,1000.86
2018-03-23T07:34:13.005Z,1000.86
2018-03-23T07:36:06.313Z,1000.84
2018-03-23T07:37:06.259Z,1000.87
2018-03-23T07:38:59.708Z,1000.85
2018-03-23T07:39:59.550Z,1000.87
2018-03-23T07:41:52.894Z,1000.82
2018-03-23T07:42:52.823Z,1000.85
2018-03-23T07:44:46.136Z,1000.83
2018-03-23T07:45:46.089Z,1000.82
2018-03-23T07:47:39.502Z,1000.82
2018-03-23T07:48:39.350Z,1000.80
2018-03-23T07:50:32.659Z,1000.73
2018-03-23T07:51:32.624Z,1000.74
2018-03-23T07:53:25.939Z,1000.77
2018-03-23T07:54:25.876Z,1000.76
2018-03-23T07:56:19.212Z,1000.77
2018-03-23T07:57:19.148Z,1000.72
2018-03-23T07:59:12.454Z,1000.75
2018-03-23T08:00:12.464Z,1000.72
2018-03-23T08:02:05.714Z,1000.71
2018-03-23T08:03:05.661Z,1000.64
2018-03-23T08:04:59.220Z,1000.73
2018-03-23T08:05:59.036Z,1000.72
2018-03-23T08:07:52.358Z,1000.68
2018-03-23T08:08:52.300Z,1000.62
2018-03-23T08:10:45.604Z,1000.60
2018-03-23T08:11:45.564Z,1000.56
2018-03-23T08:13:39.036Z,1000.59
2018-03-23T08:14:38.876Z,1000.57
2018-03-23T08:16:32.185Z,1000.59
2018-03-23T08:17:32.193Z,1000.61
2018-03-23T08:19:25.488Z,1000.56
2018-03-23T08:20:25.424Z,1000.55
2018-03-23T08:22:18.731Z,1000.52
2018-03-23T08:23:18.671Z,1000.50
2018-03-23T08:25:12.002Z,1000.49
2018-03-23T08:26:11.945Z,1000.40
2018-03-23T08:28:05.275Z,1000.38
2018-03-23T08:29:05.214Z,1000.37
2018-03-23T08:30:58.684Z,1000.35
2018-03-23T08:31:58.519Z,1000.34
2018-03-23T08:33:51.841Z,1000.36
2018-03-23T08:34:51.800Z,1000.37
2018-03-23T08:36:45.076Z,1000.38
2018-03-23T08:37:45.055Z,1000.41
2018-03-23T08:39:38.443Z,1000.39
2018-03-23T08:40:38.321Z,1000.37
2018-03-23T08:42:31.626Z,1000.35
2018-03-23T08:43:31.592Z,1000.28
2018-03-23T08:45:24.944Z,1000.33
2018-03-23T08:46:24.858Z,1000.33
2018-03-23T08:48:18.165Z,1000.36
2018-03-23T08:49:18.126Z,1000.37
2018-03-23T08:51:11.449Z,1000.31
2018-03-23T08:52:11.381Z,1000.34
2018-03-23T08:54:04.708Z,1000.33
2018-03-23T08:55:04.648Z,1000.31
2018-03-23T08:56:58.149Z,1000.38
2018-03-23T08:57:58.031Z,1000.37
2018-03-23T08:59:51.386Z,1000.34
2018-03-23T09:00:51.298Z,1000.31
2018-03-23T09:02:44.644Z,1000.27
2018-03-23T09:03:44.581Z,1000.25
2018-03-23T09:05:37.986Z,1000.22
2018-03-23T09:06:37.850Z,1000.23
2018-03-23T09:08:31.168Z,1000.19
2018-03-23T09:09:31.123Z,1000.20
2018-03-23T09:11:24.457Z,1000.17
2018-03-23T09:12:24.397Z,1000.14
2018-03-23T09:14:17.698Z,1000.10
2018-03-23T09:15:17.685Z,1000.07
2018-03-23T09:17:11.006Z,1000.06
2018-03-23T09:18:10.935Z,1000.07
2018-03-23T09:20:05.260Z,1000.03
2018-03-23T09:21:05.232Z,1000.01
2018-03-23T09:22:58.511Z,1000.02
2018-03-23T09:23:58.461Z,1000.03
2018-03-23T09:25:51.782Z,999.99
2018-03-23T09:26:51.735Z,999.99
2018-03-23T09:28:45.044Z,999.94
2018-03-23T09:29:45.018Z,999.93
2018-03-23T09:31:38.407Z,999.91
2018-03-23T09:32:38.302Z,999.88
2018-03-23T09:34:31.618Z,999.86
2018-03-23T09:35:31.576Z,999.86
2018-03-23T09:37:24.906Z,999.90
2018-03-23T09:38:24.846Z,999.91
2018-03-23T09:40:18.283Z,999.86
2018-03-23T09:41:18.141Z,999.82
2018-03-23T09:43:11.458Z,999.78
2018-03-23T09:44:11.431Z,999.79
2018-03-23T09:46:04.716Z,999.77
2018-03-23T09:47:04.673Z,999.72
2018-03-23T09:48:58.118Z,999.73
2018-03-23T09:49:57.958Z,999.73
2018-03-23T09:51:51.279Z,999.70
2018-03-23T09:52:51.221Z,999.66
2018-03-23T09:54:44.549Z,999.60
2018-03-23T09:55:44.506Z,999.57
2018-03-23T09:57:38.023Z,999.54
2018-03-23T09:58:37.792Z,999.55
2018-03-23T10:00:31.113Z,999.54
2018-03-23T10:01:31.069Z,999.50
2018-03-23T10:03:24.388Z,999.51
2018-03-23T10:04:24.356Z,999.51
2018-03-23T10:06:17.812Z,999.46
2018-03-23T10:07:17.611Z,999.45
2018-03-23T10:09:10.938Z,999.44
2018-03-23T10:10:10.881Z,999.43
2018-03-23T10:12:04.177Z,999.41
2018-03-23T10:13:04.152Z,999.39
2018-03-23T10:14:57.677Z,999.30
2018-03-23T10:15:57.452Z,999.29
2018-03-23T10:17:50.756Z,999.27
2018-03-23T10:18:50.724Z,999.25
2018-03-23T10:20:44.067Z,999.26
2018-03-23T10:21:44.062Z,999.24
2018-03-23T10:23:37.354Z,999.24
2018-03-23T10:24:37.310Z,999.18
2018-03-23T10:26:30.624Z,999.21
2018-03-23T10:27:30.583Z,999.17
2018-03-23T10:29:23.923Z,999.13
2018-03-23T10:30:23.848Z,999.11
2018-03-23T10:32:17.276Z,999.11
2018-03-23T10:33:17.132Z,999.06
2018-03-23T10:35:10.447Z,999.04
2018-03-23T10:36:10.404Z,999.00
2018-03-23T10:38:04.709Z,999.03
2018-03-23T10:39:04.665Z,998.97
2018-03-23T10:40:58.173Z,998.97
2018-03-23T10:41:57.954Z,999.00
2018-03-23T10:43:51.280Z,998.93
2018-03-23T10:44:51.249Z,998.93
2018-03-23T10:46:44.593Z,998.90
2018-03-23T10:47:44.509Z,998.92
2018-03-23T10:49:37.872Z,998.92
2018-03-23T10:50:37.818Z,998.89
2018-03-23T10:52:31.138Z,998.89
2018-03-23T10:53:31.149Z,998.84
2018-03-23T10:55:24.405Z,998.81
2018-03-23T10:56:24.355Z,998.79
2018-03-23T10:58:17.725Z,998.80
2018-03-23T10:59:17.630Z,998.77
2018-03-23T11:01:10.948Z,998.75
2018-03-23T11:02:10.908Z,998.73
2018-03-23T11:04:04.214Z,998.71
2018-03-23T11:05:04.143Z,998.70
2018-03-23T11:06:57.648Z,998.67
2018-03-23T11:07:57.473Z,998.67
2018-03-23T11:09:50.750Z,998.68
2018-03-23T11:10:50.744Z,998.65
2018-03-23T11:12:44.074Z,998.66
2018-03-23T11:13:44.033Z,998.68
2018-03-23T11:15:37.510Z,998.65
2018-03-23T11:16:37.288Z,998.61
2018-03-23T11:18:30.612Z,998.62
2018-03-23T11:19:30.574Z,998.58
2018-03-23T11:21:23.863Z,998.53
2018-03-23T11:22:23.827Z,998.53
2018-03-23T11:24:17.270Z,998.53
2018-03-23T11:25:17.097Z,998.47
2018-03-23T11:27:10.408Z,998.42
2018-03-23T11:28:10.365Z,998.44
2018-03-23T11:30:03.685Z,998.39
2018-03-23T11:31:03.631Z,998.35
2018-03-23T11:32:57.032Z,998.37
2018-03-23T11:33:56.919Z,998.34
2018-03-23T11:35:50.237Z,998.36
2018-03-23T11:36:50.231Z,998.37
2018-03-23T11:38:43.499Z,998.41
2018-03-23T11:39:43.446Z,998.39
2018-03-23T11:41:36.960Z,998.36
2018-03-23T11:42:36.778Z,998.32
2018-03-23T11:44:30.103Z,998.24
2018-03-23T11:45:30.065Z,998.22
2018-03-23T11:47:23.376Z,998.18
2018-03-23T11:48:23.350Z,998.16
2018-03-23T11:50:16.780Z,998.12
2018-03-23T11:51:16.616Z,998.08
2018-03-23T11:53:09.959Z,998.11
2018-03-23T11:54:09.893Z,998.09
2018-03-23T11:56:03.199Z,998.09
2018-03-23T11:57:03.154Z,998.04
2018-03-23T11:58:56.666Z,998.00
2018-03-23T11:59:56.435Z,998.02
2018-03-23T12:01:49.775Z,998.00
2018-03-23T12:02:49.709Z,997.95
2018-03-23T12:04:43.015Z,997.97
2018-03-23T12:05:43.000Z,997.96
2018-03-23T12:07:36.526Z,997.95
2018-03-23T12:08:36.286Z,997.94
2018-03-23T12:10:29.597Z,997.91
2018-03-23T12:11:29.570Z,997.90
2018-03-23T12:13:22.925Z,997.88
2018-03-23T12:14:22.845Z,997.85
2018-03-23T12:16:16.268Z,997.79
2018-03-23T12:17:16.128Z,997.80
2018-03-23T12:19:09.461Z,997.76
2018-03-23T12:20:09.379Z,997.76
2018-03-23T12:22:02.740Z,997.74
2018-03-23T12:23:02.654Z,997.79
2018-03-23T12:24:56.043Z,997.71
2018-03-23T12:25:55.924Z,997.74
2018-03-23T12:27:49.262Z,997.69
2018-03-23T12:28:49.209Z,997.68
2018-03-23T12:30:42.509Z,997.60
2018-03-23T12:31:42.473Z,997.61
2018-03-23T12:33:35.954Z,997.58
2018-03-23T12:34:35.747Z,997.62
2018-03-23T12:36:29.030Z,997.65
2018-03-23T12:37:29.012Z,997.62
2018-03-23T12:39:22.333Z,997.64
2018-03-23T12:40:22.277Z,997.64
2018-03-23T12:42:15.610Z,997.58
2018-03-23T12:43:15.566Z,997.60
2018-03-23T12:45:08.899Z,997.59
2018-03-23T12:46:08.860Z,997.54
2018-03-23T12:48:02.222Z,997.53
2018-03-23T12:49:02.108Z,997.54
2018-03-23T12:50:55.610Z,997.48
2018-03-23T12:51:55.401Z,997.47
2018-03-23T12:53:48.720Z,997.44
2018-03-23T12:54:48.663Z,997.41
2018-03-23T12:56:41.991Z,997.34
2018-03-23T12:57:41.945Z,997.36
2018-03-23T12:59:35.266Z,997.35
2018-03-23T13:00:35.266Z,997.36
2018-03-23T13:02:28.519Z,997.42
2018-03-23T13:03:28.468Z,997.38
2018-03-23T13:05:21.816Z,997.35
2018-03-23T13:06:21.762Z,997.34
2018-03-23T13:08:15.304Z,997.30
2018-03-23T13:09:15.042Z,997.27
2018-03-23T13:11:08.361Z,997.30
2018-03-23T13:12:08.327Z,997.29
2018-03-23T13:14:01.499Z,997.30
2018-03-23T13:15:01.416Z,997.30
2018-03-23T13:16:54.758Z,997.26
2018-03-23T13:17:54.696Z,997.23
2018-03-23T13:19:48.016Z,997.21
2018-03-23T13:20:47.955Z,997.21
2018-03-23T13:22:41.308Z,997.19
2018-03-23T13:23:41.213Z,997.17
2018-03-23T13:25:34.565Z,997.18
2018-03-23T13:26:34.482Z,997.11
2018-03-23T13:28:27.816Z,997.08
2018-03-23T13:29:27.784Z,997.09
2018-03-23T13:31:21.156Z,997.07
2018-03-23T13:32:21.037Z,997.11
2018-03-23T13:34:14.350Z,997.11
2018-03-23T13:35:14.304Z,997.10
2018-03-23T13:37:07.636Z,997.08
2018-03-23T13:38:07.581Z,997.10
2018-03-23T13:40:00.933Z,997.13
2018-03-23T13:41:00.831Z,997.12
2018-03-23T13:42:54.149Z,997.11
2018-03-23T13:43:54.096Z,997.12
2018-03-23T13:45:47.431Z,997.09
2018-03-23T13:46:47.363Z,997.10
2018-03-23T13:48:40.816Z,997.10
2018-03-23T13:49:40.643Z,997.06
2018-03-23T13:51:33.983Z,997.12
2018-03-23T13:52:33.921Z,997.12
2018-03-23T13:54:27.212Z,997.02
2018-03-23T13:55:27.187Z,997.03
2018-03-23T13:57:20.672Z,997.04
2018-03-23T13:58:20.472Z,997.02
2018-03-23T14:00:13.797Z,996.95
2018-03-23T14:01:13.762Z,996.97
2018-03-23T14:03:08.100Z,996.93
2018-03-23T14:04:08.042Z,996.92
2018-03-23T14:06:01.345Z,996.91
2018-03-23T14:07:01.297Z,996.90
2018-03-23T14:08:54.650Z,996.86
2018-03-23T14:09:54.577Z,996.86
2018-03-23T14:11:47.882Z,996.89
2018-03-23T14:12:47.846Z,996.87
2018-03-23T14:14:41.138Z,996.94
2018-03-23T14:15:41.113Z,996.92
2018-03-23T14:17:34.418Z,996.92
2018-03-23T14:18:34.385Z,996.95
2018-03-23T14:20:27.660Z,996.96
2018-03-23T14:21:27.621Z,996.96
2018-03-23T14:23:21.034Z,996.92
2018-03-23T14:24:20.888Z,996.90
2018-03-23T14:26:14.330Z,996.87
2018-03-23T14:27:14.218Z,996.78
2018-03-23T14:29:07.498Z,996.78
2018-03-23T14:30:07.446Z,996.77
2018-03-23T14:32:00.768Z,996.78
2018-03-23T14:33:00.733Z,996.76
2018-03-23T14:34:54.064Z,996.71
2018-03-23T14:35:53.996Z,996.67
2018-03-23T14:37:47.332Z,996.66
2018-03-23T14:38:47.283Z,996.67
2018-03-23T14:40:40.757Z,996.61
2018-03-23T14:41:40.593Z,996.57
2018-03-23T14:43:33.935Z,996.57
2018-03-23T14:44:33.855Z,996.56
2018-03-23T14:46:27.162Z,996.53
2018-03-23T14:47:27.133Z,996.55
2018-03-23T14:49:20.667Z,996.57
2018-03-23T14:50:20.468Z,996.54
2018-03-23T14:52:13.757Z,996.52
2018-03-23T14:53:13.729Z,996.55
2018-03-23T14:55:07.046Z,996.58
2018-03-23T14:56:06.974Z,996.54
2018-03-23T14:58:00.454Z,996.54
2018-03-23T14:59:00.254Z,996.51
2018-03-23T15:00:53.543Z,996.48
2018-03-23T15:01:53.509Z,996.51
2018-03-23T15:03:46.828Z,996.49
2018-03-23T15:04:46.784Z,996.49
2018-03-23T15:06:40.079Z,996.48
2018-03-23T15:07:40.035Z,996.51
2018-03-23T15:09:33.369Z,996.44
2018-03-23T15:10:33.423Z,996.45
2018-03-23T15:12:26.604Z,996.46
2018-03-23T15:13:26.570Z,996.42
2018-03-23T15:15:19.903Z,996.43
2018-03-23T15:16:19.856Z,996.40
2018-03-23T15:18:13.174Z,996.36
2018-03-23T15:19:13.106Z,996.37
2018-03-23T15:21:06.454Z,996.41
2018-03-23T15:22:06.371Z,996.40
2018-03-23T15:23:59.364Z,996.44
2018-03-23T15:24:59.356Z,996.39
2018-03-23T15:26:52.662Z,996.42
2018-03-23T15:27:52.583Z,996.39
2018-03-23T15:29:45.870Z,996.36
2018-03-23T15:30:45.848Z,996.37
2018-03-23T15:32:39.155Z,996.32
2018-03-23T15:33:39.109Z,996.33
2018-03-23T15:35:31.924Z,996.26
2018-03-23T15:36:31.868Z,996.24
2018-03-23T15:38:25.232Z,996.27
2018-03-23T15:39:25.185Z,996.29
2018-03-23T15:41:18.579Z,996.29
2018-03-23T15:42:18.475Z,996.31
2018-03-23T15:44:11.794Z,996.25
2018-03-23T15:45:11.750Z,996.26
2018-03-23T15:47:05.078Z,996.24
2018-03-23T15:48:05.018Z,996.23
2018-03-23T15:49:58.510Z,996.19
2018-03-23T15:50:58.319Z,996.17
2018-03-23T15:52:51.580Z,996.16
2018-03-23T15:53:51.533Z,996.11
2018-03-23T15:55:44.870Z,996.11
2018-03-23T15:56:44.808Z,996.07
2018-03-23T15:58:38.294Z,996.06
2018-03-23T15:59:38.096Z,996.05
2018-03-23T16:01:31.414Z,996.01
2018-03-23T16:02:31.443Z,996.02
2018-03-23T16:04:24.660Z,996.04
2018-03-23T16:05:24.626Z,996.01
2018-03-23T16:07:17.917Z,996.05
2018-03-23T16:08:17.879Z,995.99
2018-03-23T16:10:11.203Z,996.00
2018-03-23T16:11:11.224Z,995.97
2018-03-23T16:13:04.424Z,995.98
2018-03-23T16:14:04.200Z,995.97
2018-03-23T16:15:57.522Z,996.03
2018-03-23T16:16:57.504Z,995.99
2018-03-23T16:18:50.764Z,995.96
2018-03-23T16:19:50.729Z,995.94
2018-03-23T16:21:44.203Z,995.87
2018-03-23T16:22:43.997Z,995.82
2018-03-23T16:24:37.331Z,995.83
2018-03-23T16:25:37.271Z,995.81
2018-03-23T16:27:30.567Z,995.75
2018-03-23T16:28:30.520Z,995.72
2018-03-23T16:30:23.834Z,995.71
2018-03-23T16:31:23.791Z,995.69
2018-03-23T16:33:17.100Z,995.68
2018-03-23T16:34:17.065Z,995.69
2018-03-23T16:36:10.496Z,995.68
2018-03-23T16:37:10.299Z,995.67
2018-03-23T16:39:03.625Z,995.67
2018-03-23T16:40:03.584Z,995.69
2018-03-23T16:41:56.961Z,995.68
2018-03-23T16:42:56.911Z,995.65
2018-03-23T16:44:50.160Z,995.66
2018-03-23T16:45:50.126Z,995.66
2018-03-23T16:47:43.676Z,995.64
2018-03-23T16:48:43.482Z,995.68
2018-03-23T16:50:36.794Z,995.66
2018-03-23T16:51:36.778Z,995.67
2018-03-23T16:53:30.080Z,995.66
2018-03-23T16:54:30.023Z,995.66
2018-03-23T16:56:23.331Z,995.64
2018-03-23T16:57:23.263Z,995.61
2018-03-23T16:59:16.604Z,995.57
2018-03-23T17:00:16.530Z,995.57
2018-03-23T17:02:09.854Z,995.59
2018-03-23T17:03:09.786Z,995.57
2018-03-23T17:05:03.362Z,995.64
2018-03-23T17:06:03.149Z,995.61
2018-03-23T17:07:56.485Z,995.63
2018-03-23T17:08:56.395Z,995.61
2018-03-23T17:10:49.708Z,995.56
2018-03-23T17:11:49.701Z,995.60
2018-03-23T17:13:43.020Z,995.61
2018-03-23T17:14:42.993Z,995.58
2018-03-23T17:16:36.293Z,995.65
2018-03-23T17:17:36.232Z,995.68
2018-03-23T17:19:29.554Z,995.64
2018-03-23T17:20:29.507Z,995.66
2018-03-23T17:22:22.858Z,995.66
2018-03-23T17:23:22.883Z,995.63
2018-03-23T17:25:16.121Z,995.64
2018-03-23T17:26:16.140Z,995.64
2018-03-23T17:28:09.372Z,995.61
2018-03-23T17:29:09.322Z,995.60
2018-03-23T17:31:02.678Z,995.63
2018-03-23T17:32:02.656Z,995.57
2018-03-23T17:33:55.948Z,995.60
2018-03-23T17:34:55.890Z,995.58
2018-03-23T17:36:49.181Z,995.61
2018-03-23T17:37:49.134Z,995.56
2018-03-23T17:39:42.466Z,995.58
2018-03-23T17:40:42.433Z,995.63
2018-03-23T17:42:35.724Z,995.65
2018-03-23T17:43:35.763Z,995.64